Time;durP1;ratioP1;P1;durP2;ratioP2;P2;SDS_P1;SDS_P2;PMS_P1;PMS_P2;Temp;Humidity;BMP_temperature;BMP_pressure;BME280_temperature;BME280_humidity;BME280_pressure;Samples;Min_cycle;Max_cycle;Signal;HPM_P1;HPM_P2
2022/09/16 04:31:55;;;;;;;;;11.33;11.33;;;;;;;;5286510;22;45998;-63
2022/09/16 04:34:20;;;;;;;;;12.00;10.33;;;;;;;;5032357;28;45322;-62
2022/09/16 04:36:45;;;;;;;;;11.33;10.00;;;;;;;;5036806;28;45375;-63
2022/09/16 04:39:11;;;;;;;;;11.67;9.67;;;;;;;;5031584;28;45233;-63
2022/09/16 04:41:37;;;;;;;;;12.67;12.00;;;;;;;;5032643;28;45504;-60
2022/09/16 04:44:02;;;;;;;;;12.00;10.00;;;;;;;;5030427;28;45450;-60
2022/09/16 04:46:29;;;;;;;;;11.00;9.00;;;;;;;;5033526;28;45320;-61
2022/09/16 04:48:55;;;;;;;;;11.67;9.00;;;;;;;;5022751;28;45245;-61
2022/09/16 04:51:21;;;;;;;;;10.67;9.67;;;;;;;;5029456;28;45313;-61
2022/09/16 04:53:46;;;;;;;;;9.00;9.00;;;;;;;;5019199;28;45388;-61
2022/09/16 04:56:14;;;;;;;;;10.00;10.00;;;;;;;;5029213;28;45403;-61
2022/09/16 04:58:40;;;;;;;;;9.00;8.00;;;;;;;;5027305;28;45494;-61
2022/09/16 05:01:06;;;;;;;;;9.00;8.00;;;;;;;;5027080;28;46129;-61
2022/09/16 05:03:32;;;;;;;;;9.33;9.33;;;;;;;;5028928;28;45709;-60
2022/09/16 05:06:23;;;;;;;;;12.67;9.33;;;;;;;;5036617;28;45330;-60
2022/09/16 05:08:49;;;;;;;;;10.33;9.00;;;;;;;;5015955;28;45359;-60
2022/09/16 05:11:17;;;;;;;;;10.00;10.00;;;;;;;;5022159;28;46370;-61
2022/09/16 05:13:42;;;;;;;;;11.67;9.67;;;;;;;;5022170;28;45427;-60
2022/09/16 05:16:12;;;;;;;;;14.00;10.33;;;;;;;;5017807;28;45327;-60
2022/09/16 05:18:38;;;;;;;;;11.00;11.00;;;;;;;;5019070;28;45419;-60
2022/09/16 05:21:04;;;;;;;;;13.67;11.67;;;;;;;;5023587;28;46532;-60
2022/09/16 05:23:29;;;;;;;;;10.67;10.33;;;;;;;;5015267;28;45529;-60
2022/09/16 05:26:00;;;;;;;;;14.00;11.00;;;;;;;;5019005;28;45896;-60
2022/09/16 05:28:27;;;;;;;;;10.33;10.33;;;;;;;;5017773;28;45687;-60
2022/09/16 05:30:52;;;;;;;;;11.67;10.67;;;;;;;;5014888;28;46131;-61
2022/09/16 05:33:17;;;;;;;;;11.00;9.33;;;;;;;;5020742;28;45396;-59
2022/09/16 05:35:44;;;;;;;;;8.33;8.33;;;;;;;;5021554;28;45290;-60
2022/09/16 05:38:09;;;;;;;;;10.00;8.00;;;;;;;;5027457;28;45382;-60
2022/09/16 05:40:34;;;;;;;;;10.00;9.33;;;;;;;;5027132;28;46142;-60
2022/09/16 05:43:00;;;;;;;;;12.33;11.67;;;;;;;;5028231;28;45289;-60
2022/09/16 05:45:25;;;;;;;;;14.67;11.67;;;;;;;;5018862;28;45331;-60
2022/09/16 05:47:50;;;;;;;;;20.00;14.67;;;;;;;;5020068;28;45482;-60
2022/09/16 05:50:15;;;;;;;;;16.67;15.33;;;;;;;;5025285;28;47165;-60
2022/09/16 05:52:41;;;;;;;;;19.00;14.00;;;;;;;;5021833;28;45537;-60
2022/09/16 05:55:07;;;;;;;;;9.67;9.67;;;;;;;;5013549;28;45512;-60
2022/09/16 05:57:32;;;;;;;;;14.00;14.00;;;;;;;;5014564;28;45661;-61
2022/09/16 05:59:57;;;;;;;;;12.00;12.00;;;;;;;;5022262;28;46134;-60
2022/09/16 06:02:22;;;;;;;;;13.33;11.67;;;;;;;;5023523;28;45558;-61
2022/09/16 06:04:48;;;;;;;;;12.00;11.33;;;;;;;;5024918;28;45387;-60
2022/09/16 06:07:13;;;;;;;;;14.33;13.33;;;;;;;;5026614;28;45625;-60
2022/09/16 06:09:38;;;;;;;;;10.00;9.67;;;;;;;;5022374;28;45166;-60
2022/09/16 06:12:04;;;;;;;;;21.33;12.00;;;;;;;;5019551;28;45591;-60
2022/09/16 06:14:29;;;;;;;;;12.33;11.33;;;;;;;;5020874;28;45442;-60
2022/09/16 06:16:55;;;;;;;;;12.67;12.00;;;;;;;;5023072;28;45367;-59
2022/09/16 06:19:21;;;;;;;;;14.67;13.33;;;;;;;;5018241;28;45364;-59
2022/09/16 06:21:46;;;;;;;;;12.67;11.67;;;;;;;;5014543;28;45589;-60
2022/09/16 06:24:13;;;;;;;;;12.67;12.67;;;;;;;;5021950;28;45465;-61
2022/09/16 06:26:39;;;;;;;;;17.00;13.00;;;;;;;;5021351;28;45340;-61
2022/09/16 06:29:05;;;;;;;;;15.33;13.00;;;;;;;;5020211;28;46097;-60
2022/09/16 06:31:30;;;;;;;;;12.00;11.33;;;;;;;;5014066;28;45474;-61
2022/09/16 06:33:56;;;;;;;;;15.33;12.00;;;;;;;;5022070;28;45303;-61
2022/09/16 06:36:23;;;;;;;;;18.67;14.00;;;;;;;;5018400;28;45261;-59
2022/09/16 06:38:48;;;;;;;;;15.00;15.00;;;;;;;;5019216;28;45736;-59
2022/09/16 06:41:14;;;;;;;;;15.33;14.00;;;;;;;;5017969;28;45428;-59
2022/09/16 06:43:40;;;;;;;;;14.00;12.00;;;;;;;;5022136;28;45538;-60
2022/09/16 06:46:09;;;;;;;;;14.33;11.33;;;;;;;;5020873;28;45411;-60
2022/09/16 06:48:34;;;;;;;;;7.00;6.00;;;;;;;;5018577;28;46726;-60
2022/09/16 06:51:00;;;;;;;;;13.50;13.00;;;;;;;;5020546;28;45403;-60
2022/09/16 06:53:26;;;;;;;;;11.67;10.00;;;;;;;;5011598;28;46750;-60
2022/09/16 06:55:51;;;;;;;;;14.33;11.33;;;;;;;;5018204;28;45486;-60
2022/09/16 06:58:16;;;;;;;;;10.00;10.00;;;;;;;;5015096;28;46252;-60
2022/09/16 07:00:42;;;;;;;;;14.67;13.33;;;;;;;;5013630;28;45475;-60
2022/09/16 07:03:07;;;;;;;;;15.67;12.67;;;;;;;;5023630;28;45371;-60
2022/09/16 07:05:33;;;;;;;;;13.67;12.00;;;;;;;;5032274;28;45369;-60
2022/09/16 07:07:58;;;;;;;;;12.33;11.00;;;;;;;;5026940;28;46210;-60
2022/09/16 07:10:24;;;;;;;;;16.00;13.33;;;;;;;;5026843;28;45555;-60
2022/09/16 07:12:50;;;;;;;;;13.33;12.67;;;;;;;;5025313;28;45776;-60
2022/09/16 07:15:15;;;;;;;;;14.67;12.67;;;;;;;;5030061;28;45194;-61
2022/09/16 07:17:40;;;;;;;;;19.67;12.67;;;;;;;;5024373;28;45641;-59
2022/09/16 07:20:06;;;;;;;;;17.00;10.67;;;;;;;;5033538;28;45395;-61
2022/09/16 07:22:31;;;;;;;;;20.33;14.67;;;;;;;;5021299;28;45475;-60
2022/09/16 07:24:56;;;;;;;;;11.33;9.67;;;;;;;;5036328;28;45677;-61
2022/09/16 07:27:21;;;;;;;;;14.00;11.33;;;;;;;;5030698;28;46112;-61
2022/09/16 07:29:47;;;;;;;;;12.00;9.00;;;;;;;;5032630;28;45718;-60
2022/09/16 07:32:12;;;;;;;;;12.33;11.00;;;;;;;;5033671;28;45411;-59
2022/09/16 07:34:37;;;;;;;;;13.33;11.67;;;;;;;;5031230;28;45507;-60
2022/09/16 07:37:02;;;;;;;;;12.67;11.00;;;;;;;;5032091;28;45621;-59
2022/09/16 07:39:27;;;;;;;;;14.33;13.33;;;;;;;;5036731;28;45442;-59
2022/09/16 07:41:53;;;;;;;;;13.67;13.00;;;;;;;;5037238;28;45398;-60
2022/09/16 07:44:19;;;;;;;;;13.67;11.33;;;;;;;;5029237;28;45313;-61
2022/09/16 07:46:44;;;;;;;;;12.00;12.00;;;;;;;;5032663;28;45540;-60
2022/09/16 07:49:11;;;;;;;;;13.67;13.67;;;;;;;;5030801;28;45410;-60
2022/09/16 07:51:36;;;;;;;;;16.00;12.00;;;;;;;;5025156;28;45486;-60
2022/09/16 07:54:03;;;;;;;;;12.33;12.33;;;;;;;;5024779;28;45594;-59
2022/09/16 07:56:30;;;;;;;;;12.67;11.00;;;;;;;;5029999;28;46097;-60
2022/09/16 07:58:56;;;;;;;;;15.00;11.67;;;;;;;;5024878;28;45742;-60
2022/09/16 08:01:21;;;;;;;;;13.67;12.67;;;;;;;;5036636;28;45759;-61
2022/09/16 08:03:46;;;;;;;;;12.00;9.00;;;;;;;;5027788;28;45477;-61
2022/09/16 08:06:14;;;;;;;;;9.33;9.33;;;;;;;;5031738;28;46296;-60
2022/09/16 08:08:39;;;;;;;;;10.00;10.00;;;;;;;;5034537;28;45415;-60
2022/09/16 08:11:05;;;;;;;;;11.00;9.67;;;;;;;;5031428;28;45374;-60
2022/09/16 08:13:31;;;;;;;;;13.67;11.67;;;;;;;;5027010;28;45392;-60
2022/09/16 08:16:02;;;;;;;;;10.33;9.33;;;;;;;;5034205;28;46944;-61
2022/09/16 08:18:27;;;;;;;;;9.00;6.67;;;;;;;;5024735;28;45762;-60
2022/09/16 08:20:52;;;;;;;;;8.67;8.67;;;;;;;;5030605;28;45520;-60
2022/09/16 08:23:17;;;;;;;;;7.00;7.00;;;;;;;;5026427;28;45587;-60
2022/09/16 08:25:43;;;;;;;;;8.00;7.00;;;;;;;;5030063;28;47092;-58
2022/09/16 08:28:12;;;;;;;;;10.33;7.33;;;;;;;;5019741;28;45348;-59
2022/09/16 08:30:37;;;;;;;;;7.00;7.00;;;;;;;;5018074;28;45521;-61
2022/09/16 08:33:03;;;;;;;;;5.33;4.00;;;;;;;;5021370;28;45627;-61
2022/09/16 08:35:28;;;;;;;;;8.67;7.00;;;;;;;;5028667;28;45944;-61
2022/09/16 08:37:53;;;;;;;;;10.33;7.00;;;;;;;;5031291;28;45601;-60
2022/09/16 08:40:22;;;;;;;;;10.33;8.33;;;;;;;;5030128;28;45437;-60
2022/09/16 08:42:50;;;;;;;;;11.67;8.00;;;;;;;;5024631;28;45626;-60
2022/09/16 08:45:25;;;;;;;;;6.33;5.33;;;;;;;;5031738;28;45493;-60
2022/09/16 08:47:50;;;;;;;;;7.00;7.00;;;;;;;;5022796;28;45344;-62
2022/09/16 08:50:23;;;;;;;;;5.00;5.00;;;;;;;;5022398;28;45600;-61
2022/09/16 08:52:49;;;;;;;;;7.33;5.33;;;;;;;;5032961;28;45776;-60
2022/09/16 08:55:17;;;;;;;;;6.00;6.00;;;;;;;;5033305;28;45332;-60
2022/09/16 08:57:47;;;;;;;;;6.00;6.00;;;;;;;;5021255;28;45521;-61
2022/09/16 09:00:14;;;;;;;;;11.33;6.00;;;;;;;;5023137;28;45682;-61
2022/09/16 09:03:06;;;;;;;;;6.00;4.00;;;;;;;;5023919;28;45818;-60
2022/09/16 09:05:35;;;;;;;;;4.33;3.67;;;;;;;;5006518;28;46698;-61
2022/09/16 09:08:05;;;;;;;;;11.00;6.67;;;;;;;;5025877;28;45258;-59
2022/09/16 09:10:40;;;;;;;;;4.67;4.00;;;;;;;;5022860;28;45529;-60
2022/09/16 09:13:28;;;;;;;;;4.33;3.00;;;;;;;;5023487;28;45401;-61
2022/09/16 09:16:06;;;;;;;;;6.00;5.00;;;;;;;;5005884;28;46758;-61
2022/09/16 09:18:40;;;;;;;;;3.00;3.00;;;;;;;;5012364;28;45997;-61
2022/09/16 09:21:06;;;;;;;;;6.00;5.00;;;;;;;;5028895;28;45465;-60
2022/09/16 09:23:37;;;;;;;;;3.67;3.67;;;;;;;;5023120;28;45494;-61
2022/09/16 09:26:05;;;;;;;;;4.75;2.00;;;;;;;;5021177;28;45455;-61
2022/09/16 09:28:42;;;;;;;;;3.00;3.00;;;;;;;;5024083;28;45398;-61
2022/09/16 09:31:12;;;;;;;;;3.00;3.00;;;;;;;;5019951;28;45489;-61
2022/09/16 09:33:54;;;;;;;;;2.00;2.00;;;;;;;;5016971;28;45778;-61
2022/09/16 09:36:44;;;;;;;;;1.50;1.50;;;;;;;;5014325;28;45490;-61
2022/09/16 09:39:24;;;;;;;;;2.75;2.25;;;;;;;;5017909;28;45426;-61
2022/09/16 09:41:52;;;;;;;;;1.00;1.00;;;;;;;;5027108;28;45497;-61
2022/09/16 09:44:36;;;;;;;;;1.75;1.75;;;;;;;;5023467;28;45469;-61
2022/09/16 09:47:04;;;;;;;;;2.00;2.00;;;;;;;;5027784;28;46244;-61
2022/09/16 09:49:34;;;;;;;;;1.50;1.50;;;;;;;;5032224;28;45422;-61
2022/09/16 09:52:13;;;;;;;;;3.25;1.25;;;;;;;;5024151;28;45348;-60
2022/09/16 09:54:43;;;;;;;;;1.25;1.00;;;;;;;;5027975;28;45300;-61
2022/09/16 09:57:16;;;;;;;;;0.25;0.25;;;;;;;;5026944;28;46130;-61
2022/09/16 09:59:48;;;;;;;;;1.00;1.00;;;;;;;;5032887;28;45529;-62
2022/09/16 10:02:15;;;;;;;;;4.00;1.00;;;;;;;;5018286;28;45509;-60
2022/09/16 10:04:41;;;;;;;;;0.00;0.00;;;;;;;;5018602;28;45342;-61
2022/09/16 10:07:07;;;;;;;;;3.00;0.50;;;;;;;;5023121;28;47027;-61
2022/09/16 10:09:33;;;;;;;;;0.25;0.00;;;;;;;;5021625;28;45322;-60
2022/09/16 10:11:59;;;;;;;;;1.00;1.00;;;;;;;;5036207;28;45347;-61
2022/09/16 10:14:24;;;;;;;;;1.00;1.00;;;;;;;;5024538;28;45383;-61
2022/09/16 10:16:50;;;;;;;;;1.00;1.00;;;;;;;;5035957;28;46229;-61
2022/09/16 10:19:21;;;;;;;;;1.00;1.00;;;;;;;;5025813;28;45432;-61
2022/09/16 10:21:53;;;;;;;;;1.00;1.00;;;;;;;;5027951;28;45401;-61
2022/09/16 10:24:30;;;;;;;;;1.00;0.25;;;;;;;;5031167;28;45463;-61
2022/09/16 10:26:55;;;;;;;;;2.50;1.00;;;;;;;;5023861;28;46050;-61
2022/09/16 10:29:21;;;;;;;;;1.00;1.00;;;;;;;;5017253;28;45570;-62
2022/09/16 10:31:46;;;;;;;;;3.00;0.50;;;;;;;;5023435;28;45565;-61
2022/09/16 10:34:26;;;;;;;;;0.75;0.75;;;;;;;;5027765;28;45581;-62
2022/09/16 10:37:13;;;;;;;;;1.00;1.00;;;;;;;;5020204;28;46114;-61
2022/09/16 10:39:42;;;;;;;;;1.25;1.00;;;;;;;;5024606;28;46334;-60
2022/09/16 10:42:20;;;;;;;;;1.00;1.00;;;;;;;;5020515;28;46745;-60
2022/09/16 10:44:47;;;;;;;;;1.00;1.00;;;;;;;;5033763;28;45684;-61
2022/09/16 10:47:22;;;;;;;;;1.75;1.75;;;;;;;;5020004;28;46365;-61
2022/09/16 10:49:53;;;;;;;;;1.00;1.00;;;;;;;;5010257;28;45426;-60
2022/09/16 10:52:26;;;;;;;;;3.00;1.25;;;;;;;;5021993;28;45271;-61
2022/09/16 10:54:52;;;;;;;;;1.00;1.00;;;;;;;;5032333;28;45508;-62
2022/09/16 10:57:25;;;;;;;;;1.00;1.00;;;;;;;;5020755;28;46847;-61
2022/09/16 11:00:07;;;;;;;;;1.25;1.25;;;;;;;;5022452;28;45461;-61
2022/09/16 11:02:51;;;;;;;;;0.50;0.50;;;;;;;;5027441;28;45796;-61
2022/09/16 11:05:37;;;;;;;;;0.50;0.50;;;;;;;;5025100;28;45546;-61
2022/09/16 11:08:10;;;;;;;;;2.00;1.75;;;;;;;;5025565;28;46106;-61
2022/09/16 11:10:45;;;;;;;;;1.00;1.00;;;;;;;;5029272;28;45727;-61
2022/09/16 11:13:19;;;;;;;;;1.00;1.00;;;;;;;;5033843;28;45612;-61
2022/09/16 11:15:47;;;;;;;;;2.00;1.00;;;;;;;;5021698;28;45756;-61
2022/09/16 11:18:49;;;;;;;;;1.50;1.00;;;;;;;;5026931;28;45454;-60
2022/09/16 11:21:22;;;;;;;;;0.75;0.25;;;;;;;;4973833;28;45343;-61
2022/09/16 11:23:47;;;;;;;;;0.00;0.00;;;;;;;;5023720;28;45548;-60
2022/09/16 11:26:26;;;;;;;;;1.00;1.00;;;;;;;;5028960;28;45335;-60
2022/09/16 11:29:04;;;;;;;;;1.00;1.00;;;;;;;;5024624;28;46275;-61
2022/09/16 11:31:30;;;;;;;;;1.00;1.00;;;;;;;;5025650;28;45400;-61
2022/09/16 11:34:07;;;;;;;;;1.00;1.00;;;;;;;;5027238;28;45257;-60
2022/09/16 11:36:32;;;;;;;;;2.75;1.25;;;;;;;;5021562;28;45759;-60
2022/09/16 11:39:12;;;;;;;;;1.00;0.00;;;;;;;;5014531;28;45996;-60
2022/09/16 11:41:44;;;;;;;;;1.25;1.00;;;;;;;;5016241;28;45385;-62
2022/09/16 11:44:23;;;;;;;;;0.00;0.00;;;;;;;;5030261;28;45465;-60
2022/09/16 11:47:03;;;;;;;;;1.00;1.00;;;;;;;;5024787;28;46699;-59
2022/09/16 11:49:52;;;;;;;;;0.25;0.25;;;;;;;;5027381;28;46490;-60
2022/09/16 11:52:24;;;;;;;;;0.00;0.00;;;;;;;;5026852;28;45544;-59
2022/09/16 11:55:11;;;;;;;;;2.00;0.50;;;;;;;;5024872;28;45443;-58
2022/09/16 11:57:40;;;;;;;;;1.00;1.00;;;;;;;;5028265;28;45496;-59
2022/09/16 12:00:09;;;;;;;;;1.00;1.00;;;;;;;;5033181;28;46852;-59
2022/09/16 12:02:53;;;;;;;;;0.50;0.50;;;;;;;;5032838;28;45256;-59
2022/09/16 12:05:21;;;;;;;;;0.25;0.25;;;;;;;;5028872;28;45426;-59
2022/09/16 12:07:52;;;;;;;;;1.00;1.00;;;;;;;;5031978;28;45654;-60
2022/09/16 12:10:36;;;;;;;;;1.75;1.75;;;;;;;;5033983;28;45410;-60
2022/09/16 12:13:07;;;;;;;;;2.00;1.00;;;;;;;;5032572;28;45553;-61
2022/09/16 12:15:35;;;;;;;;;1.00;1.00;;;;;;;;5032288;28;45615;-60
2022/09/16 12:18:05;;;;;;;;;1.00;1.00;;;;;;;;5037429;28;45343;-60
2022/09/16 12:20:37;;;;;;;;;0.25;0.25;;;;;;;;5029199;28;46234;-60
2022/09/16 12:23:09;;;;;;;;;3.25;1.75;;;;;;;;5021182;28;45451;-59
2022/09/16 12:25:41;;;;;;;;;1.00;1.00;;;;;;;;5019364;28;45776;-60
2022/09/16 12:28:20;;;;;;;;;1.00;1.00;;;;;;;;5028604;28;45702;-60
2022/09/16 12:30:48;;;;;;;;;1.25;1.25;;;;;;;;5022328;28;46189;-60
2022/09/16 12:33:28;;;;;;;;;0.50;0.50;;;;;;;;5019944;28;45532;-60
2022/09/16 12:35:58;;;;;;;;;1.00;1.00;;;;;;;;5020475;28;45465;-60
2022/09/16 12:38:24;;;;;;;;;1.00;1.00;;;;;;;;5023390;28;45637;-60
2022/09/16 12:40:49;;;;;;;;;1.00;1.00;;;;;;;;5022210;28;45741;-59
2022/09/16 12:43:17;;;;;;;;;1.00;1.00;;;;;;;;5022759;28;45629;-60
2022/09/16 12:45:48;;;;;;;;;1.00;1.00;;;;;;;;5022639;28;45359;-60
2022/09/16 12:48:32;;;;;;;;;2.25;1.00;;;;;;;;5021253;28;45552;-59
2022/09/16 12:51:00;;;;;;;;;1.25;0.50;;;;;;;;5021954;28;45228;-59
2022/09/16 12:53:34;;;;;;;;;1.00;1.00;;;;;;;;5024071;28;45381;-59
2022/09/16 12:56:02;;;;;;;;;0.50;0.50;;;;;;;;5020580;28;45605;-59
2022/09/16 12:58:27;;;;;;;;;1.75;1.00;;;;;;;;5023743;28;45391;-59
2022/09/16 13:01:11;;;;;;;;;1.00;1.00;;;;;;;;5019267;28;46168;-60
2022/09/16 13:03:38;;;;;;;;;2.50;0.50;;;;;;;;5021128;28;45493;-59
2022/09/16 13:06:06;;;;;;;;;1.00;1.00;;;;;;;;5023266;28;45320;-59
2022/09/16 13:08:32;;;;;;;;;2.50;1.50;;;;;;;;5018455;28;45504;-59
2022/09/16 13:11:03;;;;;;;;;2.67;1.00;;;;;;;;5019725;28;45666;-59
2022/09/16 13:13:31;;;;;;;;;1.00;1.00;;;;;;;;5018318;28;45296;-58
2022/09/16 13:15:57;;;;;;;;;1.33;1.33;;;;;;;;5025677;28;45403;-59
2022/09/16 13:18:27;;;;;;;;;2.33;2.00;;;;;;;;5030766;28;45602;-58
2022/09/16 13:20:56;;;;;;;;;2.67;2.00;;;;;;;;5031006;28;46144;-59
2022/09/16 13:23:23;;;;;;;;;2.33;2.00;;;;;;;;5031752;28;45455;-60
2022/09/16 13:25:48;;;;;;;;;2.33;0.67;;;;;;;;5023737;28;45366;-59
2022/09/16 13:28:40;;;;;;;;;4.00;1.00;;;;;;;;5023034;28;45367;-60
2022/09/16 13:31:11;;;;;;;;;3.00;1.67;;;;;;;;5031304;28;46286;-60
2022/09/16 13:33:44;;;;;;;;;2.00;2.00;;;;;;;;5017460;28;45572;-60
2022/09/16 13:36:14;;;;;;;;;0.33;0.33;;;;;;;;5032246;28;45680;-59
2022/09/16 13:38:40;;;;;;;;;1.00;1.00;;;;;;;;5027401;28;45624;-59
2022/09/16 13:41:08;;;;;;;;;2.00;2.00;;;;;;;;5030482;28;45476;-59
2022/09/16 13:43:54;;;;;;;;;1.00;1.00;;;;;;;;5022641;28;45399;-59
2022/09/16 13:46:36;;;;;;;;;2.00;0.00;;;;;;;;5016512;28;45456;-59
2022/09/16 13:49:04;;;;;;;;;1.00;0.33;;;;;;;;5026799;28;45482;-59
2022/09/16 13:51:31;;;;;;;;;1.75;0.25;;;;;;;;5030103;28;46210;-59
2022/09/16 13:54:02;;;;;;;;;1.00;1.00;;;;;;;;5025529;28;46028;-60
2022/09/16 13:56:53;;;;;;;;;1.00;0.25;;;;;;;;5019783;28;45506;-60
2022/09/16 13:59:25;;;;;;;;;0.50;0.50;;;;;;;;5015471;28;45423;-59
2022/09/16 14:02:05;;;;;;;;;2.00;2.00;;;;;;;;5022372;28;46067;-60
2022/09/16 14:04:40;;;;;;;;;1.00;1.00;;;;;;;;5019396;28;45469;-60
2022/09/16 14:07:19;;;;;;;;;3.00;1.00;;;;;;;;5020984;28;45670;-59
2022/09/16 14:09:53;;;;;;;;;0.00;0.00;;;;;;;;5015094;28;45448;-60
2022/09/16 14:12:21;;;;;;;;;3.00;1.00;;;;;;;;5020444;28;45501;-60
2022/09/16 14:14:46;;;;;;;;;1.67;1.67;;;;;;;;5014453;28;45541;-60
2022/09/16 14:17:19;;;;;;;;;0.00;0.00;;;;;;;;5016330;28;45367;-59
2022/09/16 14:19:45;;;;;;;;;2.33;1.00;;;;;;;;5017484;28;45463;-60
2022/09/16 14:22:13;;;;;;;;;1.00;1.00;;;;;;;;5015905;28;46081;-59
2022/09/16 14:24:40;;;;;;;;;0.50;0.00;;;;;;;;5023590;28;45513;-60
2022/09/16 14:27:16;;;;;;;;;1.00;1.00;;;;;;;;5021026;28;45397;-60
2022/09/16 14:29:52;;;;;;;;;0.50;0.50;;;;;;;;5021351;28;45568;-60
2022/09/16 14:32:17;;;;;;;;;1.00;1.00;;;;;;;;5026610;28;46304;-60
2022/09/16 14:34:43;;;;;;;;;1.00;1.00;;;;;;;;5033334;28;45165;-60
2022/09/16 14:37:15;;;;;;;;;1.00;1.00;;;;;;;;5036109;28;45482;-60
2022/09/16 14:39:41;;;;;;;;;1.00;1.00;;;;;;;;5021207;28;45409;-59
2022/09/16 14:42:07;;;;;;;;;4.00;1.00;;;;;;;;5020593;28;46390;-59
2022/09/16 14:44:36;;;;;;;;;0.00;0.00;;;;;;;;5018481;28;45413;-59
2022/09/16 14:47:16;;;;;;;;;1.00;0.00;;;;;;;;5018376;28;45449;-60
2022/09/16 14:49:42;;;;;;;;;1.00;1.00;;;;;;;;5021188;28;45653;-60
2022/09/16 14:52:21;;;;;;;;;0.00;0.00;;;;;;;;5020879;28;45708;-60
2022/09/16 14:54:46;;;;;;;;;1.00;1.00;;;;;;;;5014745;28;45469;-61
2022/09/16 14:57:21;;;;;;;;;6.67;1.00;;;;;;;;5017316;28;45691;-59
2022/09/16 14:59:47;;;;;;;;;0.75;0.75;;;;;;;;5019657;28;45312;-59
2022/09/16 15:02:13;;;;;;;;;2.33;2.00;;;;;;;;5018891;28;45694;-59
2022/09/16 15:04:39;;;;;;;;;1.00;1.00;;;;;;;;5018839;28;45434;-60
2022/09/16 15:07:10;;;;;;;;;1.00;1.00;;;;;;;;5014224;28;45473;-60
2022/09/16 15:09:48;;;;;;;;;0.33;0.33;;;;;;;;5020837;28;45565;-60
2022/09/16 15:12:33;;;;;;;;;1.33;1.33;;;;;;;;5021002;28;45372;-59
2022/09/16 15:15:03;;;;;;;;;2.00;2.00;;;;;;;;5021942;28;45426;-59
2022/09/16 15:17:28;;;;;;;;;0.00;0.00;;;;;;;;5022823;28;45488;-59
2022/09/16 15:19:55;;;;;;;;;0.33;0.00;;;;;;;;5020445;28;45395;-60
2022/09/16 15:22:22;;;;;;;;;1.00;0.25;;;;;;;;5021518;28;45551;-60
2022/09/16 15:24:51;;;;;;;;;0.75;0.75;;;;;;;;5024151;28;45619;-61
2022/09/16 15:27:20;;;;;;;;;1.00;1.00;;;;;;;;5032009;28;45498;-59
2022/09/16 15:29:48;;;;;;;;;0.00;0.00;;;;;;;;5022849;28;45451;-60
2022/09/16 15:32:17;;;;;;;;;1.00;1.00;;;;;;;;5026923;28;46144;-60
2022/09/16 15:34:43;;;;;;;;;1.00;1.00;;;;;;;;5023823;28;45443;-59
2022/09/16 15:37:27;;;;;;;;;1.67;1.67;;;;;;;;5025444;28;45371;-59
2022/09/16 15:39:52;;;;;;;;;1.00;1.00;;;;;;;;5018539;28;45690;-60
2022/09/16 15:42:19;;;;;;;;;1.00;1.00;;;;;;;;5019960;28;45563;-60
2022/09/16 15:44:55;;;;;;;;;1.25;1.00;;;;;;;;5023680;28;45368;-60
2022/09/16 15:47:23;;;;;;;;;1.00;1.00;;;;;;;;5031323;28;45300;-60
2022/09/16 15:49:51;;;;;;;;;0.00;0.00;;;;;;;;5019856;28;45419;-60
2022/09/16 15:52:17;;;;;;;;;0.25;0.25;;;;;;;;5022797;28;46340;-58
2022/09/16 15:54:49;;;;;;;;;1.00;1.00;;;;;;;;5021765;28;45577;-60
2022/09/16 15:57:22;;;;;;;;;1.00;1.00;;;;;;;;5021637;28;45502;-60
2022/09/16 15:59:53;;;;;;;;;0.25;0.25;;;;;;;;5024243;28;45513;-59
2022/09/16 16:02:34;;;;;;;;;2.00;1.00;;;;;;;;5025755;28;46507;-60
2022/09/16 16:05:13;;;;;;;;;0.00;0.00;;;;;;;;5020853;28;45419;-59
2022/09/16 16:07:46;;;;;;;;;0.00;0.00;;;;;;;;5028986;28;45363;-60
2022/09/16 16:10:21;;;;;;;;;0.00;0.00;;;;;;;;5025403;28;45331;-60
2022/09/16 16:12:47;;;;;;;;;0.00;0.00;;;;;;;;5026100;28;46178;-60
2022/09/16 16:15:14;;;;;;;;;0.00;0.00;;;;;;;;5028673;28;45447;-59
2022/09/16 16:17:40;;;;;;;;;0.00;0.00;;;;;;;;5022445;28;45703;-60
2022/09/16 16:20:06;;;;;;;;;0.00;0.00;;;;;;;;5030166;28;45561;-60
2022/09/16 16:22:31;;;;;;;;;0.00;0.00;;;;;;;;5016975;28;47828;-59
2022/09/16 16:24:56;;;;;;;;;0.00;0.00;;;;;;;;5023819;28;45391;-59
2022/09/16 16:27:22;;;;;;;;;0.00;0.00;;;;;;;;5030049;28;45491;-60
2022/09/16 16:29:47;;;;;;;;;0.67;0.00;;;;;;;;5023322;28;45932;-60
2022/09/16 16:32:13;;;;;;;;;0.00;0.00;;;;;;;;5023352;28;46044;-60
2022/09/16 16:34:40;;;;;;;;;0.00;0.00;;;;;;;;5026218;28;45379;-60
2022/09/16 16:37:06;;;;;;;;;1.00;1.00;;;;;;;;5017138;28;45513;-60
2022/09/16 16:39:32;;;;;;;;;0.00;0.00;;;;;;;;5020277;28;45496;-61
2022/09/16 16:41:57;;;;;;;;;2.00;0.33;;;;;;;;5028357;28;45843;-60
2022/09/16 16:44:23;;;;;;;;;0.00;0.00;;;;;;;;5032116;28;45357;-60
2022/09/16 16:46:49;;;;;;;;;0.00;0.00;;;;;;;;5019035;28;45469;-60
2022/09/16 16:49:14;;;;;;;;;3.00;1.00;;;;;;;;5032114;28;45355;-61
2022/09/16 16:51:39;;;;;;;;;0.67;0.00;;;;;;;;5025228;28;45617;-61
2022/09/16 16:54:05;;;;;;;;;0.67;0.67;;;;;;;;5011513;28;45421;-61
2022/09/16 16:56:30;;;;;;;;;0.00;0.00;;;;;;;;5012089;28;45500;-60
2022/09/16 16:58:56;;;;;;;;;0.67;0.67;;;;;;;;5025893;28;45561;-59
2022/09/16 17:01:21;;;;;;;;;0.00;0.00;;;;;;;;5022322;28;46248;-59
2022/09/16 17:03:48;;;;;;;;;1.33;0.00;;;;;;;;5022506;28;45663;-60
2022/09/16 17:06:14;;;;;;;;;0.00;0.00;;;;;;;;5029143;28;46812;-60
2022/09/16 17:08:39;;;;;;;;;0.67;0.00;;;;;;;;5029941;28;45456;-62
2022/09/16 17:11:08;;;;;;;;;1.00;0.67;;;;;;;;5032649;28;45441;-60
2022/09/16 17:13:34;;;;;;;;;1.67;1.67;;;;;;;;5028146;28;45412;-59
2022/09/16 17:15:59;;;;;;;;;1.33;1.00;;;;;;;;5024501;28;45505;-59
2022/09/16 17:18:25;;;;;;;;;0.00;0.00;;;;;;;;5015434;28;45756;-59
2022/09/16 17:20:50;;;;;;;;;0.00;0.00;;;;;;;;5023260;28;45735;-61
2022/09/16 17:23:15;;;;;;;;;0.00;0.00;;;;;;;;5030155;28;45501;-59
2022/09/16 17:25:40;;;;;;;;;0.00;0.00;;;;;;;;5018237;28;45399;-60
2022/09/16 17:28:06;;;;;;;;;1.33;0.33;;;;;;;;5022044;28;45359;-60
2022/09/16 17:30:31;;;;;;;;;2.00;0.00;;;;;;;;5019663;28;46143;-59
2022/09/16 17:32:56;;;;;;;;;0.00;0.00;;;;;;;;5023451;28;45684;-58
2022/09/16 17:35:22;;;;;;;;;1.00;0.00;;;;;;;;5021892;28;45532;-60
2022/09/16 17:37:47;;;;;;;;;0.00;0.00;;;;;;;;5022877;28;45559;-60
2022/09/16 17:40:12;;;;;;;;;2.00;1.00;;;;;;;;5018475;28;45474;-60
2022/09/16 17:42:37;;;;;;;;;1.00;1.00;;;;;;;;5020640;28;45718;-60
2022/09/16 17:45:05;;;;;;;;;0.00;0.00;;;;;;;;5004003;28;45756;-60
2022/09/16 17:47:30;;;;;;;;;0.00;0.00;;;;;;;;5013358;28;45487;-59
2022/09/16 17:49:58;;;;;;;;;0.00;0.00;;;;;;;;5016704;28;46314;-60
2022/09/16 17:52:23;;;;;;;;;1.33;1.00;;;;;;;;5018116;28;45541;-59
2022/09/16 17:54:48;;;;;;;;;1.00;1.00;;;;;;;;5022190;28;46024;-59
2022/09/16 17:57:13;;;;;;;;;1.67;0.67;;;;;;;;5026144;28;46832;-59
2022/09/16 17:59:38;;;;;;;;;1.00;0.00;;;;;;;;5023329;28;45261;-59
2022/09/16 18:02:04;;;;;;;;;1.67;0.33;;;;;;;;5026261;28;45372;-59
2022/09/16 18:04:29;;;;;;;;;0.33;0.33;;;;;;;;5030700;28;45243;-59
2022/09/16 18:06:55;;;;;;;;;0.67;0.67;;;;;;;;5027204;28;45604;-61
2022/09/16 18:09:21;;;;;;;;;0.00;0.00;;;;;;;;5028914;28;45345;-58
2022/09/16 18:11:46;;;;;;;;;0.00;0.00;;;;;;;;5017294;28;45363;-58
2022/09/16 18:14:12;;;;;;;;;0.33;0.33;;;;;;;;5016012;28;46490;-59
2022/09/16 18:16:37;;;;;;;;;0.00;0.00;;;;;;;;5021474;28;45600;-60
2022/09/16 18:19:03;;;;;;;;;0.00;0.00;;;;;;;;5028934;28;46045;-59
2022/09/16 18:21:28;;;;;;;;;2.33;1.67;;;;;;;;5025938;28;45390;-58
2022/09/16 18:23:55;;;;;;;;;1.33;1.33;;;;;;;;5020995;28;45415;-58
2022/09/16 18:26:20;;;;;;;;;1.00;1.00;;;;;;;;5027098;28;45513;-59
2022/09/16 18:28:48;;;;;;;;;1.00;1.00;;;;;;;;5019393;28;46083;-59
2022/09/16 18:31:15;;;;;;;;;0.00;0.00;;;;;;;;5017808;28;45343;-58
2022/09/16 18:33:40;;;;;;;;;0.00;0.00;;;;;;;;5019705;28;45589;-59
2022/09/16 18:36:13;;;;;;;;;2.00;0.00;;;;;;;;5019326;28;45617;-58
2022/09/16 18:38:38;;;;;;;;;0.67;0.67;;;;;;;;5037452;28;46188;-59
2022/09/16 18:41:15;;;;;;;;;0.33;0.33;;;;;;;;5027507;28;45327;-59
2022/09/16 18:43:45;;;;;;;;;0.33;0.33;;;;;;;;5033908;28;45632;-58
2022/09/16 18:46:11;;;;;;;;;0.67;0.67;;;;;;;;5031974;28;45651;-59
2022/09/16 18:48:36;;;;;;;;;2.00;0.67;;;;;;;;5018681;28;45459;-59
2022/09/16 18:51:01;;;;;;;;;0.00;0.00;;;;;;;;5021267;28;45408;-59
2022/09/16 18:53:27;;;;;;;;;0.00;0.00;;;;;;;;5020602;28;45719;-60
2022/09/16 18:55:52;;;;;;;;;0.33;0.33;;;;;;;;5019658;28;45697;-60
2022/09/16 18:58:18;;;;;;;;;1.67;1.00;;;;;;;;5034350;28;45311;-60
2022/09/16 19:00:46;;;;;;;;;0.67;0.67;;;;;;;;5016756;28;45648;-59
2022/09/16 19:03:11;;;;;;;;;1.00;1.00;;;;;;;;5017762;28;45425;-60
2022/09/16 19:05:36;;;;;;;;;1.33;0.00;;;;;;;;5019119;28;45430;-60
2022/09/16 19:08:02;;;;;;;;;0.67;0.67;;;;;;;;5019374;28;46274;-60
2022/09/16 19:10:27;;;;;;;;;0.00;0.00;;;;;;;;5017534;28;45442;-60
2022/09/16 19:12:52;;;;;;;;;0.67;0.67;;;;;;;;5011818;28;45652;-59
2022/09/16 19:15:19;;;;;;;;;0.67;0.67;;;;;;;;5013685;28;45901;-58
2022/09/16 19:17:44;;;;;;;;;0.00;0.00;;;;;;;;5018886;28;46093;-59
2022/09/16 19:20:09;;;;;;;;;0.00;0.00;;;;;;;;5018173;28;45800;-60